GJS4432 KEWR-KDCA
Flight info
| Callsign | GJS4432 |
|---|---|
| Flight time | N/A |
| Altitude | 20000 |
| Route | BIGGY Q75 MXE CLIPR3 |
| Aircraft | CRJ7/M-SDFGIRWY/S |
Departure
| Time | 2026-04-22 21:27 |
|---|---|
| Airport | Newark Liberty International Airport (KEWR) |
Arrival
| Time | N/A |
|---|---|
| Airport | Ronald Reagan Washington National Airport (KDCA) |
| Time | Latitude | Longitude | Altitude | Speed | Heading |
|---|---|---|---|---|---|
| 2026-04-22 21:06 | 40.69686 | -74.17510 | 21 ft | 0 kts | 309° |
| 2026-04-22 21:18 | 40.69685 | -74.17509 | 20 ft | 1 kts | 309° |
| 2026-04-22 21:19 | 40.69670 | -74.17485 | 20 ft | 4 kts | 305° |
| 2026-04-22 21:19 | 40.69668 | -74.17468 | 22 ft | 2 kts | 250° |
| 2026-04-22 21:19 | 40.69669 | -74.17442 | 22 ft | 4 kts | 313° |
| 2026-04-22 21:19 | 40.69657 | -74.17446 | 21 ft | 2 kts | 40° |
| 2026-04-22 21:20 | 40.69642 | -74.17465 | 20 ft | 2 kts | 41° |
| 2026-04-22 21:20 | 40.69640 | -74.17466 | 20 ft | 1 kts | 41° |
| 2026-04-22 21:22 | 40.69643 | -74.17463 | 21 ft | 3 kts | 41° |
| 2026-04-22 21:22 | 40.69695 | -74.17404 | 22 ft | 13 kts | 41° |
| 2026-04-22 21:22 | 40.69767 | -74.17324 | 20 ft | 14 kts | 37° |
| 2026-04-22 21:23 | 40.69836 | -74.17223 | 20 ft | 15 kts | 76° |
| 2026-04-22 21:23 | 40.69816 | -74.17155 | 21 ft | 7 kts | 142° |
| 2026-04-22 21:23 | 40.69751 | -74.17092 | 20 ft | 14 kts | 143° |
| 2026-04-22 21:23 | 40.69664 | -74.17031 | 20 ft | 15 kts | 161° |
| 2026-04-22 21:24 | 40.69558 | -74.16992 | 20 ft | 17 kts | 167° |
| 2026-04-22 21:24 | 40.69438 | -74.16969 | 20 ft | 20 kts | 181° |
| 2026-04-22 21:24 | 40.69252 | -74.17015 | 20 ft | 35 kts | 204° |
| 2026-04-22 21:24 | 40.68992 | -74.17180 | 20 ft | 48 kts | 206° |
| 2026-04-22 21:25 | 40.68680 | -74.17379 | 21 ft | 50 kts | 206° |
| 2026-04-22 21:25 | 40.68372 | -74.17574 | 21 ft | 49 kts | 206° |
| 2026-04-22 21:25 | 40.68070 | -74.17767 | 20 ft | 48 kts | 206° |
| 2026-04-22 21:25 | 40.67775 | -74.17948 | 22 ft | 47 kts | 210° |
| 2026-04-22 21:26 | 40.67608 | -74.18043 | 20 ft | 14 kts | 163° |
| 2026-04-22 21:26 | 40.67566 | -74.17947 | 22 ft | 12 kts | 83° |
| 2026-04-22 21:26 | 40.67616 | -74.17894 | 20 ft | 15 kts | 24° |
| 2026-04-22 21:26 | 40.67814 | -74.17768 | 20 ft | 65 kts | 27° |
| 2026-04-22 21:27 | 40.68473 | -74.17342 | 26 ft | 142 kts | 29° |
| 2026-04-22 21:27 | 40.69375 | -74.16694 | 794 ft | 141 kts | 30° |
| 2026-04-22 21:27 | 40.70208 | -74.16017 | 1743 ft | 145 kts | 46° |
| 2026-04-22 21:27 | 40.70861 | -74.15018 | 2546 ft | 152 kts | 37° |
| 2026-04-22 21:28 | 40.71850 | -74.14798 | 3216 ft | 150 kts | 336° |
| 2026-04-22 21:28 | 40.72546 | -74.15903 | 3339 ft | 184 kts | 279° |
| 2026-04-22 21:28 | 40.72425 | -74.17699 | 3844 ft | 210 kts | 261° |
| 2026-04-22 21:28 | 40.72120 | -74.19669 | 4526 ft | 228 kts | 259° |
| 2026-04-22 21:29 | 40.71733 | -74.21774 | 5243 ft | 244 kts | 258° |
| 2026-04-22 21:29 | 40.71285 | -74.23991 | 5998 ft | 255 kts | 258° |
| 2026-04-22 21:29 | 40.70797 | -74.26272 | 6857 ft | 262 kts | 257° |
| 2026-04-22 21:29 | 40.70278 | -74.28632 | 7517 ft | 276 kts | 257° |
| 2026-04-22 21:30 | 40.69730 | -74.31131 | 7662 ft | 295 kts | 257° |
| 2026-04-22 21:30 | 40.69107 | -74.33801 | 7664 ft | 308 kts | 251° |
| 2026-04-22 21:30 | 40.68162 | -74.36280 | 7723 ft | 309 kts | 245° |
| 2026-04-22 21:30 | 40.67100 | -74.38879 | 7992 ft | 332 kts | 245° |
| 2026-04-22 21:31 | 40.65952 | -74.41604 | 8541 ft | 348 kts | 244° |
| 2026-04-22 21:31 | 40.64764 | -74.44417 | 9380 ft | 353 kts | 244° |
| 2026-04-22 21:31 | 40.63580 | -74.47203 | 10622 ft | 341 kts | 244° |
| 2026-04-22 21:31 | 40.62421 | -74.49869 | 11921 ft | 331 kts | 244° |
| 2026-04-22 21:32 | 40.61258 | -74.52498 | 12799 ft | 335 kts | 244° |
| 2026-04-22 21:32 | 40.60076 | -74.55167 | 13637 ft | 339 kts | 244° |
| 2026-04-22 21:32 | 40.58877 | -74.57870 | 14368 ft | 343 kts | 244° |
| 2026-04-22 21:32 | 40.57667 | -74.60591 | 15079 ft | 346 kts | 244° |
| 2026-04-22 21:33 | 40.56442 | -74.63340 | 15786 ft | 349 kts | 244° |
| 2026-04-22 21:33 | 40.55203 | -74.66105 | 16456 ft | 353 kts | 244° |
| 2026-04-22 21:33 | 40.53957 | -74.68853 | 17133 ft | 356 kts | 244° |
| 2026-04-22 21:33 | 40.52682 | -74.71676 | 17768 ft | 361 kts | 244° |
| 2026-04-22 21:34 | 40.51399 | -74.74524 | 18410 ft | 364 kts | 244° |
| 2026-04-22 21:34 | 40.50108 | -74.77399 | 18956 ft | 367 kts | 244° |
| 2026-04-22 21:34 | 40.48811 | -74.80297 | 19497 ft | 370 kts | 245° |
| 2026-04-22 21:34 | 40.47496 | -74.83255 | 19793 ft | 380 kts | 245° |
| 2026-04-22 21:35 | 40.46147 | -74.86313 | 19933 ft | 393 kts | 245° |
| 2026-04-22 21:35 | 40.44754 | -74.89494 | 20002 ft | 408 kts | 245° |
| 2026-04-22 21:35 | 40.43335 | -74.92771 | 20024 ft | 415 kts | 245° |
| 2026-04-22 21:35 | 40.41937 | -74.96060 | 20035 ft | 408 kts | 246° |
| 2026-04-22 21:36 | 40.40733 | -74.99362 | 20032 ft | 395 kts | 255° |
| 2026-04-22 21:36 | 40.39643 | -75.02639 | 20020 ft | 396 kts | 240° |
| 2026-04-22 21:36 | 40.37847 | -75.04985 | 20026 ft | 403 kts | 221° |
| 2026-04-22 21:36 | 40.35549 | -75.07068 | 20024 ft | 399 kts | 221° |
| 2026-04-22 21:37 | 40.33382 | -75.09304 | 20029 ft | 394 kts | 226° |
| 2026-04-22 21:37 | 40.31429 | -75.11786 | 20040 ft | 390 kts | 232° |
| 2026-04-22 21:37 | 40.29600 | -75.14399 | 20048 ft | 388 kts | 233° |
| 2026-04-22 21:37 | 40.27798 | -75.17034 | 20073 ft | 389 kts | 233° |
| 2026-04-22 21:38 | 40.25962 | -75.19642 | 20047 ft | 390 kts | 232° |
| 2026-04-22 21:38 | 40.24095 | -75.22250 | 20036 ft | 393 kts | 232° |
| 2026-04-22 21:38 | 40.22213 | -75.24874 | 20032 ft | 397 kts | 232° |
| 2026-04-22 21:38 | 40.20316 | -75.27518 | 20030 ft | 400 kts | 232° |
| 2026-04-22 21:39 | 40.18409 | -75.30176 | 20022 ft | 402 kts | 232° |
| 2026-04-22 21:39 | 40.16509 | -75.32822 | 20027 ft | 405 kts | 231° |
| 2026-04-22 21:39 | 40.14580 | -75.35508 | 20029 ft | 406 kts | 231° |
| 2026-04-22 21:39 | 40.12630 | -75.38192 | 20033 ft | 406 kts | 231° |
| 2026-04-22 21:40 | 40.10699 | -75.40893 | 20032 ft | 406 kts | 232° |
| 2026-04-22 21:40 | 40.08765 | -75.43580 | 20021 ft | 406 kts | 232° |
| 2026-04-22 21:40 | 40.06829 | -75.46264 | 20027 ft | 406 kts | 232° |
| 2026-04-22 21:40 | 40.04894 | -75.48942 | 20033 ft | 405 kts | 231° |
| 2026-04-22 21:41 | 40.02961 | -75.51619 | 20034 ft | 404 kts | 231° |
| 2026-04-22 21:41 | 40.01031 | -75.54289 | 20033 ft | 404 kts | 231° |
| 2026-04-22 21:41 | 39.99110 | -75.56945 | 20022 ft | 403 kts | 231° |
| 2026-04-22 21:41 | 39.97186 | -75.59600 | 20029 ft | 402 kts | 231° |
| 2026-04-22 21:42 | 39.95269 | -75.62242 | 20033 ft | 401 kts | 232° |
| 2026-04-22 21:42 | 39.93372 | -75.64851 | 20033 ft | 401 kts | 231° |
| 2026-04-22 21:42 | 39.91490 | -75.67523 | 20035 ft | 398 kts | 236° |
| 2026-04-22 21:42 | 39.89868 | -75.70413 | 20034 ft | 394 kts | 241° |
| 2026-04-22 21:43 | 39.88381 | -75.73414 | 20023 ft | 393 kts | 242° |
| 2026-04-22 21:43 | 39.86913 | -75.76415 | 20019 ft | 393 kts | 242° |
| 2026-04-22 21:43 | 39.85423 | -75.79403 | 20010 ft | 394 kts | 241° |
| 2026-04-22 21:43 | 39.83892 | -75.82364 | 20013 ft | 394 kts | 241° |
| 2026-04-22 21:44 | 39.82353 | -75.85310 | 20020 ft | 394 kts | 240° |
| 2026-04-22 21:44 | 39.80813 | -75.88250 | 20020 ft | 394 kts | 240° |
| 2026-04-22 21:44 | 39.79791 | -75.90201 | 20028 ft | 394 kts | 240° |
| 2026-04-22 21:44 | 39.78249 | -75.93150 | 20026 ft | 394 kts | 240° |
| 2026-04-22 21:45 | 39.76706 | -75.96097 | 20027 ft | 394 kts | 240° |